createdAt,value
2018-07-11T00:00:08.162Z,16.50
2018-07-11T00:02:36.200Z,16.50
2018-07-11T00:05:04.271Z,16.40
2018-07-11T00:07:32.308Z,16.40
2018-07-11T00:10:00.353Z,16.40
2018-07-11T00:12:28.410Z,16.40
2018-07-11T00:14:56.479Z,16.30
2018-07-11T00:17:24.501Z,16.30
2018-07-11T00:19:52.545Z,16.30
2018-07-11T00:22:20.592Z,16.30
2018-07-11T00:24:48.636Z,16.20
2018-07-11T00:27:16.692Z,16.30
2018-07-11T00:29:44.733Z,16.30
2018-07-11T00:32:12.775Z,16.20
2018-07-11T00:34:40.821Z,16.20
2018-07-11T00:37:08.931Z,16.20
2018-07-11T00:39:36.912Z,16.10
2018-07-11T00:42:04.951Z,16.10
2018-07-11T00:44:33.029Z,16.00
2018-07-11T00:47:01.065Z,15.90
2018-07-11T00:49:29.100Z,15.80
2018-07-11T00:51:57.136Z,15.80
2018-07-11T00:54:25.188Z,15.80
2018-07-11T00:56:53.232Z,15.70
2018-07-11T00:59:23.389Z,15.70
2018-07-11T01:01:51.451Z,15.70
2018-07-11T01:04:19.518Z,15.60
2018-07-11T01:06:47.738Z,15.60
2018-07-11T01:09:16.013Z,15.60
2018-07-11T01:11:45.180Z,15.50
2018-07-11T01:14:13.786Z,15.50
2018-07-11T01:16:41.843Z,15.50
2018-07-11T01:19:11.032Z,15.40
2018-07-11T01:21:39.328Z,15.40
2018-07-11T01:24:07.612Z,15.40
2018-07-11T01:26:39.485Z,15.30
2018-07-11T01:29:07.982Z,15.20
2018-07-11T01:31:36.052Z,15.20
2018-07-11T01:34:04.142Z,15.10
2018-07-11T01:36:32.544Z,15.10
2018-07-11T01:39:01.244Z,15.00
2018-07-11T01:41:29.301Z,15.00
2018-07-11T01:43:57.363Z,14.90
2018-07-11T01:46:29.392Z,14.90
2018-07-11T01:48:57.450Z,14.90
2018-07-11T01:51:37.037Z,14.80
2018-07-11T01:54:05.168Z,14.80
2018-07-11T01:56:33.233Z,14.80
2018-07-11T01:59:01.297Z,14.80
2018-07-11T02:01:29.373Z,14.80
2018-07-11T02:03:57.432Z,14.70
2018-07-11T02:06:25.504Z,14.60
2018-07-11T02:08:53.560Z,14.60
2018-07-11T02:11:21.645Z,14.60
2018-07-11T02:13:49.864Z,14.50
2018-07-11T02:16:17.944Z,14.50
2018-07-11T02:21:13.868Z,14.50
2018-07-11T02:23:41.929Z,14.60
2018-07-11T02:26:09.992Z,14.60
2018-07-11T02:28:38.056Z,14.60
2018-07-11T02:31:06.148Z,14.60
2018-07-11T02:33:34.354Z,14.60
2018-07-11T02:36:02.417Z,14.60
2018-07-11T02:38:30.460Z,14.60
2018-07-11T02:40:58.536Z,14.60
2018-07-11T02:43:26.612Z,14.50
2018-07-11T02:45:54.689Z,14.50
2018-07-11T02:48:22.766Z,14.40
2018-07-11T02:50:50.928Z,14.40
2018-07-11T02:53:21.226Z,14.40
2018-07-11T02:55:50.100Z,14.40
2018-07-11T02:58:18.289Z,14.40
2018-07-11T03:00:46.784Z,14.30
2018-07-11T03:03:15.166Z,14.30
2018-07-11T03:05:43.248Z,14.30
2018-07-11T03:08:11.643Z,14.30
2018-07-11T03:10:39.980Z,14.20
2018-07-11T03:13:08.525Z,14.20
2018-07-11T03:15:36.593Z,14.20
2018-07-11T03:18:04.905Z,14.20
2018-07-11T03:20:32.982Z,14.10
2018-07-11T03:23:01.061Z,14.10
2018-07-11T03:25:29.466Z,14.00
2018-07-11T03:27:57.524Z,14.00
2018-07-11T03:30:25.812Z,14.00
2018-07-11T03:32:53.896Z,13.90
2018-07-11T03:35:22.212Z,13.90
2018-07-11T03:37:50.281Z,13.90
2018-07-11T03:40:18.340Z,13.90
2018-07-11T03:42:46.467Z,13.90
2018-07-11T03:45:14.539Z,13.90
2018-07-11T03:47:42.605Z,13.90
2018-07-11T03:52:38.528Z,13.90
2018-07-11T03:55:06.592Z,13.90
2018-07-11T03:57:34.660Z,13.90
2018-07-11T04:00:02.725Z,13.80
2018-07-11T04:02:30.796Z,13.80
2018-07-11T04:04:58.997Z,13.80
2018-07-11T04:07:27.021Z,13.80
2018-07-11T04:09:55.088Z,13.70
2018-07-11T04:12:23.285Z,13.70
2018-07-11T04:14:51.348Z,13.70
2018-07-11T04:17:19.425Z,13.70
2018-07-11T04:19:47.485Z,13.80
2018-07-11T04:22:15.552Z,13.90
2018-07-11T04:24:43.628Z,14.00
2018-07-11T04:27:11.704Z,14.10
2018-07-11T04:29:39.768Z,14.10
2018-07-11T04:32:07.837Z,14.20
2018-07-11T04:34:35.945Z,14.30
2018-07-11T04:37:03.956Z,14.50
2018-07-11T04:39:32.020Z,14.60
2018-07-11T04:42:00.097Z,14.70
2018-07-11T04:44:28.376Z,14.70
2018-07-11T04:46:56.445Z,14.80
2018-07-11T04:49:24.656Z,14.90
2018-07-11T04:51:52.837Z,15.00
2018-07-11T04:54:20.897Z,15.10
2018-07-11T04:56:48.976Z,15.10
2018-07-11T04:59:17.036Z,15.20
2018-07-11T05:01:45.108Z,15.20
2018-07-11T05:04:13.165Z,15.40
2018-07-11T05:06:41.240Z,15.50
2018-07-11T05:09:09.316Z,15.60
2018-07-11T05:11:37.392Z,15.70
2018-07-11T05:14:05.573Z,15.80
2018-07-11T05:16:33.616Z,15.90
2018-07-11T05:19:01.656Z,15.90
2018-07-11T05:21:29.708Z,15.90
2018-07-11T05:23:57.748Z,16.00
2018-07-11T05:26:25.801Z,16.00
2018-07-11T05:28:53.844Z,16.00
2018-07-11T05:31:21.892Z,16.10
2018-07-11T05:33:49.932Z,16.20
2018-07-11T05:36:18.009Z,16.20
2018-07-11T05:38:46.028Z,16.20
2018-07-11T05:41:14.077Z,16.10
2018-07-11T05:43:42.108Z,16.20
2018-07-11T05:46:10.145Z,16.30
2018-07-11T05:48:38.192Z,16.20
2018-07-11T05:51:06.447Z,16.30
2018-07-11T05:53:34.492Z,16.40
2018-07-11T05:56:02.647Z,16.50
2018-07-11T05:58:30.675Z,16.60
2018-07-11T06:00:58.716Z,16.70
2018-07-11T06:03:26.765Z,16.90
2018-07-11T06:05:54.849Z,17.20
2018-07-11T06:08:22.909Z,17.50
2018-07-11T06:10:50.944Z,17.80
2018-07-11T06:13:19.033Z,18.00
2018-07-11T06:15:47.104Z,18.20
2018-07-11T06:18:15.164Z,18.30
2018-07-11T06:20:43.220Z,18.60
2018-07-11T06:25:39.136Z,19.10
2018-07-11T06:28:07.275Z,19.30
2018-07-11T06:30:35.259Z,19.60
2018-07-11T06:33:03.326Z,19.70
2018-07-11T06:35:31.376Z,19.60
2018-07-11T06:37:59.517Z,19.70
2018-07-11T06:40:27.512Z,19.70
2018-07-11T06:42:55.605Z,19.70
2018-07-11T06:45:23.657Z,19.80
2018-07-11T06:47:51.767Z,19.80
2018-07-11T06:50:19.784Z,19.80
2018-07-11T06:52:47.846Z,19.70
2018-07-11T06:55:15.901Z,19.90
2018-07-11T06:57:43.964Z,20.10
2018-07-11T07:00:12.020Z,20.50
2018-07-11T07:02:40.088Z,20.70
2018-07-11T07:05:08.144Z,20.70
2018-07-11T07:07:36.208Z,20.60
2018-07-11T07:10:04.261Z,20.60
2018-07-11T07:12:32.328Z,20.70
2018-07-11T07:15:00.401Z,20.70
2018-07-11T07:17:28.470Z,20.60
2018-07-11T07:19:57.319Z,20.70
2018-07-11T07:22:25.395Z,20.70
2018-07-11T07:24:53.437Z,20.70
2018-07-11T07:27:21.516Z,20.90
2018-07-11T07:29:49.588Z,21.00
2018-07-11T07:32:17.636Z,21.20
2018-07-11T07:34:45.728Z,21.40
2018-07-11T07:37:13.756Z,21.40
2018-07-11T07:39:41.817Z,21.70
2018-07-11T07:42:09.868Z,22.10
2018-07-11T07:44:37.929Z,22.40
2018-07-11T07:47:06.101Z,22.50
2018-07-11T07:49:34.088Z,22.60
2018-07-11T07:52:02.147Z,22.50
2018-07-11T07:54:30.377Z,22.40
2018-07-11T07:56:58.424Z,22.20
2018-07-11T07:59:26.764Z,21.90
2018-07-11T08:01:55.173Z,21.80
2018-07-11T08:04:23.457Z,21.60
2018-07-11T08:06:51.699Z,21.40
2018-07-11T08:09:20.029Z,21.20
2018-07-11T08:11:48.080Z,21.10
2018-07-11T08:14:16.132Z,21.10
2018-07-11T08:16:44.168Z,21.20
2018-07-11T08:19:12.220Z,21.30
2018-07-11T08:21:40.257Z,21.40
2018-07-11T08:24:20.001Z,21.40
2018-07-11T08:26:59.548Z,21.40
2018-07-11T08:29:38.859Z,21.30
2018-07-11T08:32:16.252Z,21.10
2018-07-11T08:34:59.610Z,20.90
2018-07-11T08:37:39.256Z,20.90
2018-07-11T08:40:31.772Z,21.10
2018-07-11T08:43:12.588Z,21.50
2018-07-11T08:47:53.276Z,22.10
2018-07-11T08:50:45.074Z,22.90
2018-07-11T08:53:23.775Z,23.90
2018-07-11T08:58:09.396Z,24.10
2018-07-11T09:01:04.572Z,24.10
2018-07-11T09:03:44.425Z,24.10
2018-07-11T09:10:36.449Z,24.10
2018-07-11T09:14:18.054Z,23.90
2018-07-11T09:17:29.444Z,22.80
2018-07-11T09:20:15.050Z,22.30
2018-07-11T09:22:56.487Z,21.90
2018-07-11T09:25:24.540Z,21.60
2018-07-11T09:27:52.575Z,21.40
2018-07-11T09:30:20.667Z,21.20
2018-07-11T09:32:48.712Z,21.10
2018-07-11T09:35:16.753Z,21.00
2018-07-11T09:37:44.797Z,21.00
2018-07-11T09:40:12.864Z,21.10
2018-07-11T09:42:41.104Z,21.30
2018-07-11T09:45:09.157Z,21.50
2018-07-11T09:47:37.200Z,21.70
2018-07-11T09:50:05.254Z,21.90
2018-07-11T09:52:33.288Z,22.00
2018-07-11T09:55:01.322Z,22.20
2018-07-11T09:57:29.363Z,22.60
2018-07-11T09:59:57.396Z,23.10
2018-07-11T10:02:25.444Z,23.70
2018-07-11T10:04:53.493Z,24.20
2018-07-11T10:07:21.736Z,24.60
2018-07-11T10:09:49.780Z,24.90
2018-07-11T10:12:17.837Z,25.00
2018-07-11T10:14:45.900Z,24.90
2018-07-11T10:17:13.964Z,25.00
2018-07-11T10:19:42.034Z,24.70
2018-07-11T10:22:10.376Z,24.40
2018-07-11T10:24:38.524Z,24.40
2018-07-11T10:27:06.597Z,24.10
2018-07-11T10:29:34.648Z,23.90
2018-07-11T10:32:02.700Z,23.70
2018-07-11T10:34:30.761Z,23.60
2018-07-11T10:36:58.813Z,23.60
2018-07-11T10:39:26.871Z,23.70
2018-07-11T10:41:54.953Z,23.70
2018-07-11T10:44:23.100Z,23.80
2018-07-11T10:46:55.596Z,24.00
2018-07-11T10:49:23.664Z,24.30
2018-07-11T10:51:51.719Z,24.60
2018-07-11T10:54:19.786Z,24.80
2018-07-11T10:56:47.833Z,24.90
2018-07-11T10:59:15.894Z,25.00
2018-07-11T11:01:43.968Z,25.00
2018-07-11T11:04:12.376Z,25.10
2018-07-11T11:06:40.456Z,25.00
2018-07-11T11:09:08.512Z,24.80
2018-07-11T11:11:36.579Z,24.70
2018-07-11T11:14:04.621Z,24.40
2018-07-11T11:19:00.580Z,23.90
2018-07-11T11:21:28.620Z,23.80
2018-07-11T11:23:56.684Z,23.70
2018-07-11T11:26:24.708Z,23.70
2018-07-11T11:28:52.748Z,23.60
2018-07-11T11:31:20.776Z,23.40
2018-07-11T11:33:48.820Z,23.30
2018-07-11T11:36:16.852Z,23.20
2018-07-11T11:38:44.903Z,23.20
2018-07-11T11:41:12.944Z,23.00
2018-07-11T11:43:41.016Z,23.10
2018-07-11T11:46:09.056Z,23.40
2018-07-11T11:48:37.080Z,23.50
2018-07-11T11:51:05.119Z,23.80
2018-07-11T11:53:33.148Z,23.90
2018-07-11T11:56:01.275Z,24.00
2018-07-11T11:58:29.361Z,24.00
2018-07-11T12:00:57.348Z,23.90
2018-07-11T12:03:25.427Z,23.60
2018-07-11T12:05:53.476Z,23.40
2018-07-11T12:08:21.515Z,23.40
2018-07-11T12:10:49.560Z,23.30
2018-07-11T12:13:17.633Z,23.10
2018-07-11T12:18:13.540Z,22.90
2018-07-11T12:20:41.605Z,22.80
2018-07-11T12:23:09.656Z,22.80
2018-07-11T12:25:47.973Z,22.80
2018-07-11T12:28:16.025Z,22.90
2018-07-11T12:30:44.251Z,22.90
2018-07-11T12:33:12.304Z,22.90
2018-07-11T12:35:40.369Z,22.90
2018-07-11T12:38:08.424Z,22.70
2018-07-11T12:40:36.485Z,22.70
2018-07-11T12:43:04.536Z,22.60
2018-07-11T12:45:32.599Z,22.40
2018-07-11T12:48:06.076Z,22.20
2018-07-11T12:50:34.152Z,22.10
2018-07-11T12:53:02.197Z,22.00
2018-07-11T12:55:30.268Z,21.90
2018-07-11T12:57:58.465Z,21.80
2018-07-11T13:00:26.544Z,21.80
2018-07-11T13:02:55.220Z,21.80
2018-07-11T13:05:23.292Z,21.80
2018-07-11T13:07:51.489Z,21.80
2018-07-11T13:10:19.548Z,21.80
2018-07-11T13:12:47.625Z,21.90
2018-07-11T13:15:15.721Z,22.00
2018-07-11T13:17:44.093Z,22.20
2018-07-11T13:20:12.136Z,22.50
2018-07-11T13:22:40.177Z,22.70
2018-07-11T13:25:08.220Z,23.00
2018-07-11T13:27:36.264Z,23.20
2018-07-11T13:30:04.788Z,23.20
2018-07-11T13:32:32.823Z,23.30
2018-07-11T13:35:00.864Z,23.50
2018-07-11T13:37:28.899Z,23.60
2018-07-11T13:42:24.789Z,23.80
2018-07-11T13:44:52.847Z,24.00
2018-07-11T13:47:27.525Z,24.40
2018-07-11T13:49:56.133Z,24.80
2018-07-11T13:52:24.168Z,25.10
2018-07-11T13:54:52.203Z,25.30
2018-07-11T13:57:21.606Z,25.40
2018-07-11T13:59:49.664Z,25.30
2018-07-11T14:04:45.731Z,25.40
2018-07-11T14:07:13.800Z,25.30
2018-07-11T14:09:41.869Z,25.20
2018-07-11T14:12:09.916Z,25.00
2018-07-11T14:14:37.960Z,24.70
2018-07-11T14:17:06.001Z,24.40
2018-07-11T14:19:34.045Z,24.20
2018-07-11T14:22:02.400Z,24.10
2018-07-11T14:24:30.428Z,23.90
2018-07-11T14:26:58.489Z,23.70
2018-07-11T14:29:28.254Z,23.50
2018-07-11T14:31:56.993Z,23.20
2018-07-11T14:34:25.041Z,22.90
2018-07-11T14:36:53.079Z,22.60
2018-07-11T14:39:21.128Z,22.30
2018-07-11T14:41:49.176Z,22.10
2018-07-11T14:44:17.217Z,21.90
2018-07-11T14:49:15.169Z,21.50
2018-07-11T14:51:43.403Z,21.30
2018-07-11T14:54:11.451Z,21.20
2018-07-11T14:56:39.501Z,21.00
2018-07-11T14:59:07.536Z,20.70
2018-07-11T15:01:35.582Z,20.60
2018-07-11T15:04:03.624Z,20.60
2018-07-11T15:06:31.664Z,20.50
2018-07-11T15:08:59.824Z,20.40
2018-07-11T15:11:27.746Z,20.40
2018-07-11T15:13:55.808Z,20.40
2018-07-11T15:16:23.873Z,20.40
2018-07-11T15:18:51.927Z,20.40
2018-07-11T15:21:19.988Z,20.50
2018-07-11T15:23:48.048Z,20.50
2018-07-11T15:26:16.116Z,20.60
2018-07-11T15:28:44.193Z,20.80
2018-07-11T15:31:12.288Z,21.00
2018-07-11T15:33:40.405Z,21.30
2018-07-11T15:36:08.406Z,21.50
2018-07-11T15:38:36.492Z,21.70
2018-07-11T15:41:04.555Z,21.80
2018-07-11T15:43:32.676Z,22.00
2018-07-11T15:46:00.736Z,22.10
2018-07-11T15:48:28.891Z,22.10
2018-07-11T15:50:57.150Z,22.10
2018-07-11T15:53:27.317Z,22.10
2018-07-11T15:55:55.372Z,22.10
2018-07-11T15:58:26.213Z,22.10
2018-07-11T16:00:54.308Z,22.20
2018-07-11T16:03:22.360Z,22.30
2018-07-11T16:05:50.472Z,22.30
2018-07-11T16:08:20.168Z,22.30
2018-07-11T16:10:49.675Z,22.30
2018-07-11T16:13:17.757Z,22.20
2018-07-11T16:15:46.228Z,22.10
2018-07-11T16:18:14.287Z,21.90
2018-07-11T16:20:42.348Z,21.70
2018-07-11T16:23:10.697Z,21.50
2018-07-11T16:25:39.273Z,21.40
2018-07-11T16:28:07.372Z,21.30
2018-07-11T16:30:35.864Z,21.30
2018-07-11T16:33:04.136Z,21.40
2018-07-11T16:35:32.545Z,21.40
2018-07-11T16:38:01.040Z,21.40
2018-07-11T16:40:29.942Z,21.50
2018-07-11T16:42:58.013Z,21.60
2018-07-11T16:45:26.312Z,21.70
2018-07-11T16:47:55.336Z,21.80
2018-07-11T16:50:24.077Z,21.80
2018-07-11T16:52:52.173Z,21.60
2018-07-11T16:55:20.224Z,21.70
2018-07-11T16:57:49.516Z,21.70
2018-07-11T17:00:23.100Z,21.70
2018-07-11T17:02:59.528Z,21.80
2018-07-11T17:05:29.484Z,21.80
2018-07-11T17:07:58.848Z,21.90
2018-07-11T17:10:28.930Z,21.80
2018-07-11T17:13:06.636Z,21.80
2018-07-11T17:15:34.676Z,21.80
2018-07-11T17:18:03.425Z,21.80
2018-07-11T17:20:31.455Z,21.80
2018-07-11T17:23:04.601Z,21.80
2018-07-11T17:25:36.380Z,21.70
2018-07-11T17:28:04.425Z,21.70
2018-07-11T17:30:43.157Z,21.70
2018-07-11T17:33:12.269Z,21.70
2018-07-11T17:35:47.628Z,21.60
2018-07-11T17:38:15.676Z,21.60
2018-07-11T17:40:46.696Z,21.50
2018-07-11T17:43:17.272Z,21.30
2018-07-11T17:45:45.304Z,21.20
2018-07-11T17:48:48.130Z,21.00
2018-07-11T17:51:25.116Z,20.90
2018-07-11T17:53:55.726Z,20.80
2018-07-11T17:56:32.984Z,20.70
2018-07-11T17:59:01.030Z,20.70
2018-07-11T18:01:38.622Z,20.60
2018-07-11T18:04:10.645Z,20.60
2018-07-11T18:06:49.532Z,20.60
2018-07-11T18:09:21.045Z,20.60
2018-07-11T18:14:59.466Z,20.60
2018-07-11T18:17:38.985Z,20.60
2018-07-11T18:20:24.626Z,20.60
2018-07-11T18:22:59.681Z,20.50
2018-07-11T18:27:46.860Z,20.50
2018-07-11T18:30:27.996Z,20.40
2018-07-11T18:33:01.988Z,20.40
2018-07-11T18:35:44.693Z,20.40
2018-07-11T18:38:20.080Z,20.30
2018-07-11T18:41:01.188Z,20.30
2018-07-11T18:43:38.812Z,20.30
2018-07-11T18:46:18.682Z,20.30
2018-07-11T18:48:57.994Z,20.40
2018-07-11T18:52:35.674Z,20.40
2018-07-11T18:55:15.957Z,20.30
2018-07-11T18:57:55.199Z,20.20
2018-07-11T19:00:32.116Z,20.20
2018-07-11T19:03:09.199Z,20.20
2018-07-11T19:05:55.712Z,20.20
2018-07-11T19:09:04.613Z,20.20
2018-07-11T19:11:44.248Z,20.20
2018-07-11T19:14:20.725Z,20.10
2018-07-11T19:17:02.513Z,20.10
2018-07-11T19:19:36.240Z,20.00
2018-07-11T19:22:16.880Z,20.00
2018-07-11T19:24:54.739Z,19.90
2018-07-11T19:27:33.051Z,19.80
2018-07-11T19:30:06.769Z,19.80
2018-07-11T19:32:49.933Z,19.70
2018-07-11T19:35:25.164Z,19.70
2018-07-11T19:39:01.405Z,19.60
2018-07-11T19:41:44.829Z,19.50
2018-07-11T19:44:24.290Z,19.40
2018-07-11T19:47:05.967Z,19.30
2018-07-11T19:49:45.640Z,19.20
2018-07-11T19:54:29.352Z,19.10
2018-07-11T19:56:59.548Z,19.00
2018-07-11T20:01:55.445Z,18.70
2018-07-11T20:04:23.679Z,18.60
2018-07-11T20:06:51.725Z,18.60
2018-07-11T20:09:19.765Z,18.60
2018-07-11T20:11:47.849Z,18.60
2018-07-11T20:14:15.904Z,18.50
2018-07-11T20:16:44.043Z,18.50
2018-07-11T20:19:11.983Z,18.40
2018-07-11T20:21:40.478Z,18.20
2018-07-11T20:24:08.517Z,18.10
2018-07-11T20:26:36.563Z,18.00
2018-07-11T20:29:04.604Z,17.90
2018-07-11T20:31:32.785Z,17.90
2018-07-11T20:34:00.820Z,17.80
2018-07-11T20:36:28.864Z,17.80
2018-07-11T20:38:57.238Z,17.80
2018-07-11T20:41:25.276Z,17.80
2018-07-11T20:43:53.337Z,17.80
2018-07-11T20:46:21.468Z,17.90
2018-07-11T20:48:49.428Z,17.90
2018-07-11T20:51:17.468Z,18.00
2018-07-11T20:53:45.640Z,18.00
2018-07-11T20:56:13.776Z,18.00
2018-07-11T21:01:27.009Z,17.90
2018-07-11T21:04:17.713Z,17.80
2018-07-11T21:07:02.784Z,17.80
2018-07-11T21:11:48.192Z,17.70
2018-07-11T21:14:28.644Z,17.60
2018-07-11T21:17:18.577Z,17.30
2018-07-11T21:19:46.649Z,17.20
2018-07-11T21:22:14.713Z,17.20
2018-07-11T21:24:42.781Z,17.20
2018-07-11T21:27:10.848Z,17.20
2018-07-11T21:29:39.107Z,17.20
2018-07-11T21:32:07.175Z,17.30
2018-07-11T21:34:35.259Z,17.30
2018-07-11T21:37:03.317Z,17.40
2018-07-11T21:39:31.384Z,17.30
2018-07-11T21:41:59.449Z,17.40
2018-07-11T21:44:27.516Z,17.40
2018-07-11T21:46:55.611Z,17.40
2018-07-11T21:49:23.796Z,17.40
2018-07-11T21:51:52.181Z,17.40
2018-07-11T21:54:20.248Z,17.40
2018-07-11T21:56:48.312Z,17.40
2018-07-11T21:59:16.392Z,17.50
2018-07-11T22:04:12.320Z,17.30
2018-07-11T22:06:40.388Z,17.30
2018-07-11T22:09:08.473Z,17.40
2018-07-11T22:11:36.552Z,17.50
2018-07-11T22:14:04.602Z,17.50
2018-07-11T22:16:32.657Z,17.50
2018-07-11T22:19:00.701Z,17.50
2018-07-11T22:21:27.845Z,17.50
2018-07-11T22:23:54.976Z,17.50
2018-07-11T22:26:22.125Z,17.60
2018-07-11T22:28:49.392Z,17.60
2018-07-11T22:31:16.548Z,17.60
2018-07-11T22:33:43.677Z,17.70
2018-07-11T22:36:10.832Z,17.70
2018-07-11T22:38:38.000Z,17.70
2018-07-11T22:41:05.168Z,17.60
2018-07-11T22:43:32.326Z,17.60
2018-07-11T22:45:59.496Z,17.60
2018-07-11T22:48:26.633Z,17.60
2018-07-11T22:50:53.789Z,17.50
2018-07-11T22:53:21.088Z,17.50
2018-07-11T22:55:48.269Z,17.50
2018-07-11T22:58:15.387Z,17.50
2018-07-11T23:00:42.533Z,17.50
2018-07-11T23:03:09.673Z,17.60
2018-07-11T23:05:36.818Z,17.50
2018-07-11T23:08:03.956Z,17.50
2018-07-11T23:10:31.100Z,17.50
2018-07-11T23:12:58.237Z,17.50
2018-07-11T23:15:25.381Z,17.60
2018-07-11T23:17:52.525Z,17.60
2018-07-11T23:20:19.674Z,17.60
2018-07-11T23:22:46.836Z,17.60
2018-07-11T23:25:13.993Z,17.60
2018-07-11T23:27:41.130Z,17.60
2018-07-11T23:30:08.268Z,17.50
2018-07-11T23:32:35.408Z,17.50
2018-07-11T23:35:02.553Z,17.50
2018-07-11T23:37:29.716Z,17.60
2018-07-11T23:39:56.865Z,17.50
2018-07-11T23:42:24.005Z,17.50
2018-07-11T23:44:51.148Z,17.50
2018-07-11T23:47:18.292Z,17.40
2018-07-11T23:49:45.432Z,17.50
2018-07-11T23:52:12.587Z,17.50
2018-07-11T23:54:39.728Z,17.50
2018-07-11T23:57:06.878Z,17.60
2018-07-11T23:59:34.025Z,17.60
